Date,TemperatureHighF,TemperatureAvgF,TemperatureLowF,DewpointHighF,DewpointAvgF,DewpointLowF,HumidityHigh,HumidityAvg,HumidityLow,PressureMaxIn,PressureMinIn,WindSpeedMaxMPH,WindSpeedAvgMPH,GustSpeedMaxMPH,PrecipitationSumIn
2013-2-1,42.8,25.3,13.3,26.5,18.5,9.6,89,77,50,30.52,30.35,10,0,10,0.01
2013-2-2,45.5,27.6,12.9,25.8,18.8,9.2,91,72,43,30.71,30.45,12,1,12,0.00
2013-2-3,39.2,28.2,18.9,27.8,21.9,15.4,91,78,53,30.45,30.21,7,0,7,0.00
2013-2-4,43.8,27.1,14.3,28.8,20.1,10.9,90,76,53,30.39,30.20,13,1,13,0.01
2013-2-5,48.9,30.5,16.4,27.4,20.6,13.2,89,70,35,30.36,30.03,12,1,12,0.00
2013-2-6,47.0,31.0,20.6,30.8,23.3,17.0,90,75,46,30.21,29.97,12,1,12,0.00
2013-2-7,50.4,30.3,16.2,27.7,20.1,12.7,91,70,29,30.35,30.07,13,1,13,0.01
2013-2-8,54.7,40.6,23.5,30.4,22.8,17.0,88,51,24,30.07,29.54,33,4,33,0.00
2013-2-9,40.6,35.0,29.7,30.6,25.4,17.4,90,70,44,29.76,29.59,17,2,17,0.00
2013-2-10,39.1,30.0,20.3,26.0,22.5,17.0,89,74,46,29.99,29.76,17,1,17,0.03
2013-2-11,35.9,27.7,14.0,25.7,21.7,10.1,89,79,51,30.28,29.92,12,1,12,0.05
2013-2-12,37.3,20.9,7.7,14.3,9.7,3.1,86,65,30,30.50,30.28,11,1,11,0.00
2013-2-13,40.6,25.9,11.1,23.3,15.7,6.9,87,68,37,30.52,30.24,12,1,12,0.00
2013-2-14,47.4,29.7,19.2,23.3,19.0,14.3,87,68,31,30.42,30.23,10,1,10,0.00
2013-2-15,48.3,27.8,13.8,22.6,15.9,10.1,89,66,25,30.60,30.37,11,1,11,0.01
2013-2-16,49.6,33.6,16.5,19.0,15.1,12.0,83,51,26,30.57,30.22,12,1,12,0.00
2013-2-17,51.3,33.8,16.1,23.3,16.6,6.4,86,54,25,30.22,29.73,18,2,18,0.00
2013-2-18,43.1,29.8,15.2,13.7,9.6,3.8,74,45,25,30.31,29.89,13,1,13,0.00
2013-2-19,50.4,31.5,13.3,14.1,8.2,-3.2,81,44,11,30.21,29.66,19,2,19,0.00
2013-2-20,49.6,38.4,21.9,28.0,17.2,10.8,70,43,26,29.69,29.47,15,2,15,0.00
2013-2-21,46.4,37.8,28.5,28.8,23.4,16.8,80,58,32,29.89,29.53,14,2,14,0.00
2013-2-22,39.1,30.3,16.7,27.6,20.5,10.0,88,69,36,30.20,29.85,17,2,17,0.04
2013-2-23,41.9,26.8,12.3,26.8,17.6,8.0,90,71,33,30.18,29.79,24,2,24,0.00
2013-2-24,35.0,26.6,17.7,25.2,16.6,8.2,83,66,50,30.25,29.86,15,2,15,0.06
2013-2-25,42.2,26.4,10.4,19.9,13.2,5.7,85,60,28,30.34,29.99,10,1,10,0.00
2013-2-26,40.8,30.8,17.2,25.1,17.3,8.9,89,60,28,30.34,29.90,21,3,21,0.05
2013-2-27,41.8,24.5,10.2,16.0,10.6,6.1,88,60,25,30.55,30.33,14,1,14,0.00
2013-2-28,46.0,30.0,14.4,15.1,12.0,8.4,83,51,26,30.64,30.39,15,2,15,0.00